Moscow Mills, Missouri
Current Conditions -  °F | °C
As of 1:54 AM on Saturday 25 Oct 2014 (Local Time) from KSUS Reporting Station
Clear Clear  
Wind Chill: 64°   Ceiling: Unl
Heat Index: 64°   Visibility: 10mi
Dew Point: 58°   Wind: 10mph
Humidity: 80%   Direction: 240°WSW
Pressure: 29.97"   Gusts: NA
Location:  38.95°N, 90.92°W
Report Text: KSUS 250654Z AUTO 24009KT 10SM CLR 18/14 A2997 RMK AO2 SLP144 T01780144 TSNO
Loading
Personal Weather Stations






























Interactive Weather Map
Tropical Storm Tracking
New forecast layout! Learn more

10-Day Weather Forecast

Advertisements
Track Severe Weather on mobile